createdAt,value
2022-11-30T00:00:25.752Z,101877.88
2022-11-30T00:02:54.058Z,101879.88
2022-11-30T00:05:28.541Z,101878.75
2022-11-30T00:07:56.621Z,101880.44
2022-11-30T00:10:24.832Z,101881.00
2022-11-30T00:12:55.263Z,101876.31
2022-11-30T00:15:24.413Z,101874.50
2022-11-30T00:17:58.071Z,101877.41
2022-11-30T00:20:26.778Z,101872.91
2022-11-30T00:22:56.261Z,101874.97
2022-11-30T00:25:24.258Z,101876.09
2022-11-30T00:27:52.424Z,101876.16
2022-11-30T00:30:20.609Z,101877.00
2022-11-30T00:32:53.078Z,101885.81
2022-11-30T00:35:22.656Z,101884.97
2022-11-30T00:37:50.553Z,101882.84
2022-11-30T00:40:18.777Z,101890.59
2022-11-30T00:42:49.397Z,101880.53
2022-11-30T00:45:18.536Z,101880.53
2022-11-30T00:47:47.345Z,101874.81
2022-11-30T00:50:17.842Z,101874.97
2022-11-30T00:52:46.623Z,101877.41
2022-11-30T00:55:14.890Z,101873.81
2022-11-30T00:57:45.615Z,101881.34
2022-11-30T01:00:27.187Z,101888.66
2022-11-30T01:02:57.703Z,101889.94
2022-11-30T01:05:34.791Z,101893.97
2022-11-30T01:08:03.944Z,101898.25
2022-11-30T01:10:35.313Z,101892.00
2022-11-30T01:13:05.556Z,101895.78
2022-11-30T01:15:50.150Z,101893.53
2022-11-30T01:18:21.895Z,101890.41
2022-11-30T01:20:53.762Z,101888.03
2022-11-30T01:26:06.347Z,101899.16
2022-11-30T01:28:35.613Z,101894.13
2022-11-30T01:31:06.176Z,101900.03
2022-11-30T01:33:35.160Z,101901.91
2022-11-30T01:36:06.759Z,101906.56
2022-11-30T01:38:39.828Z,101902.44
2022-11-30T01:41:09.120Z,101896.75
2022-11-30T01:43:45.675Z,101895.72
2022-11-30T01:49:23.071Z,101894.66
2022-11-30T01:53:03.306Z,101901.72
2022-11-30T01:55:36.257Z,101900.19
2022-11-30T01:58:09.489Z,101894.63
2022-11-30T02:00:37.285Z,101896.53
2022-11-30T02:03:10.786Z,101896.44
2022-11-30T02:05:41.761Z,101897.28
2022-11-30T02:08:11.815Z,101906.16
2022-11-30T02:10:44.118Z,101907.59
2022-11-30T02:13:32.381Z,101908.38
2022-11-30T02:16:14.850Z,101900.22
2022-11-30T02:18:56.624Z,101903.16
2022-11-30T02:21:33.551Z,101899.88
2022-11-30T02:24:36.459Z,101904.25
2022-11-30T02:27:17.909Z,101905.13
2022-11-30T02:29:50.713Z,101908.06
2022-11-30T02:35:48.106Z,101914.06
2022-11-30T02:38:32.430Z,101902.47
2022-11-30T02:41:04.123Z,101909.03
2022-11-30T02:46:27.881Z,101903.19
2022-11-30T02:51:53.546Z,101913.53
2022-11-30T02:54:26.484Z,101905.81
2022-11-30T02:59:30.690Z,101906.03
2022-11-30T03:02:21.878Z,101912.06
2022-11-30T03:04:51.285Z,101916.47
2022-11-30T03:07:19.909Z,101916.31
2022-11-30T03:09:48.870Z,101919.16
2022-11-30T03:12:17.578Z,101921.06
2022-11-30T03:18:04.212Z,101915.63
2022-11-30T03:24:59.645Z,101915.94
2022-11-30T03:31:52.909Z,101919.19
2022-11-30T03:41:27.922Z,101923.72
2022-11-30T03:44:00.817Z,101926.00
2022-11-30T03:46:30.689Z,101928.56
2022-11-30T03:49:17.912Z,101928.78
2022-11-30T04:05:49.374Z,101944.22
2022-11-30T04:08:19.351Z,101937.75
2022-11-30T04:10:48.548Z,101936.22
2022-11-30T04:13:16.956Z,101943.34
2022-11-30T04:15:59.087Z,101944.00
2022-11-30T04:18:33.822Z,101943.50
2022-11-30T04:23:42.252Z,101943.28
2022-11-30T04:26:19.965Z,101942.19
2022-11-30T04:28:51.616Z,101944.66
2022-11-30T04:31:23.923Z,101949.03
2022-11-30T04:34:00.596Z,101952.34
2022-11-30T04:37:20.299Z,101954.88
2022-11-30T04:39:52.734Z,101958.28
2022-11-30T04:42:43.069Z,101959.03
2022-11-30T04:49:18.897Z,101970.31
2022-11-30T04:52:19.103Z,101973.50
2022-11-30T04:55:52.477Z,101967.84
2022-11-30T04:58:59.515Z,101966.00
2022-11-30T05:01:30.590Z,101962.13
2022-11-30T05:04:04.588Z,101964.97
2022-11-30T05:07:01.889Z,101965.34
2022-11-30T05:10:03.041Z,101967.25
2022-11-30T05:12:31.143Z,101968.22
2022-11-30T05:15:00.713Z,101973.22
2022-11-30T05:17:28.672Z,101976.03
2022-11-30T05:19:56.484Z,101978.97
2022-11-30T05:22:24.465Z,101982.47
2022-11-30T05:24:52.372Z,101984.28
2022-11-30T05:27:22.767Z,101994.97
2022-11-30T05:29:50.988Z,101994.22
2022-11-30T05:32:20.562Z,101992.28
2022-11-30T05:34:52.100Z,102002.31
2022-11-30T05:37:26.124Z,101994.50
2022-11-30T05:45:36.695Z,102008.47
2022-11-30T05:48:10.736Z,102002.75
2022-11-30T05:50:44.657Z,101999.28
2022-11-30T05:53:24.196Z,102004.28
2022-11-30T05:55:54.259Z,102002.97
2022-11-30T05:58:22.500Z,102008.91
2022-11-30T06:00:50.800Z,102002.47
2022-11-30T06:03:21.311Z,102019.06
2022-11-30T06:08:52.184Z,102019.75
2022-11-30T06:11:20.112Z,102026.03
2022-11-30T06:13:47.969Z,102030.00
2022-11-30T06:16:15.948Z,102019.00
2022-11-30T06:18:45.408Z,102014.72
2022-11-30T06:21:14.255Z,102022.31
2022-11-30T06:23:43.026Z,102020.75
2022-11-30T06:26:13.264Z,102035.03
2022-11-30T06:28:46.606Z,102030.03
2022-11-30T06:31:16.100Z,102031.78
2022-11-30T06:33:45.627Z,102038.03
2022-11-30T06:36:13.392Z,102033.91
2022-11-30T06:38:41.360Z,102031.78
2022-11-30T06:41:12.569Z,102033.63
2022-11-30T06:43:41.206Z,102035.06
2022-11-30T06:46:09.643Z,102045.22
2022-11-30T06:48:37.773Z,102040.88
2022-11-30T06:51:09.018Z,102047.41
2022-11-30T06:53:37.686Z,102041.84
2022-11-30T06:56:10.327Z,102046.75
2022-11-30T06:58:39.409Z,102055.50
2022-11-30T07:01:08.183Z,102058.69
2022-11-30T07:03:36.594Z,102055.75
2022-11-30T07:06:09.523Z,102055.97
2022-11-30T07:08:37.719Z,102053.41
2022-11-30T07:11:06.123Z,102062.44
2022-11-30T07:13:34.102Z,102060.66
2022-11-30T07:16:04.813Z,102065.78
2022-11-30T07:18:32.821Z,102064.75
2022-11-30T07:21:01.223Z,102071.16
2022-11-30T07:23:54.093Z,102069.63
2022-11-30T07:26:24.316Z,102075.75
2022-11-30T07:28:54.906Z,102078.47
2022-11-30T07:31:24.811Z,102077.81
2022-11-30T07:33:53.443Z,102078.31
2022-11-30T07:36:23.249Z,102081.41
2022-11-30T07:38:52.839Z,102087.59
2022-11-30T07:41:20.728Z,102089.94
2022-11-30T07:43:48.521Z,102085.31
2022-11-30T07:46:19.285Z,102087.13
2022-11-30T07:48:47.571Z,102092.50
2022-11-30T07:51:17.223Z,102090.94
2022-11-30T07:53:48.368Z,102093.25
2022-11-30T07:56:19.285Z,102088.84
2022-11-30T07:58:47.579Z,102096.84
2022-11-30T08:01:17.227Z,102097.28
2022-11-30T08:03:45.607Z,102094.22
2022-11-30T08:06:15.204Z,102091.94
2022-11-30T08:08:44.784Z,102095.28
2022-11-30T08:11:14.599Z,102097.16
2022-11-30T08:13:43.843Z,102092.25
2022-11-30T08:16:14.299Z,102094.44
2022-11-30T08:18:42.881Z,102104.75
2022-11-30T08:21:13.296Z,102102.38
2022-11-30T08:23:43.016Z,102108.19
2022-11-30T08:26:12.989Z,102108.06
2022-11-30T08:28:41.304Z,102117.09
2022-11-30T08:31:14.073Z,102115.81
2022-11-30T08:33:42.316Z,102113.69
2022-11-30T08:36:11.814Z,102114.44
2022-11-30T08:38:40.890Z,102116.13
2022-11-30T08:41:09.952Z,102116.41
2022-11-30T08:43:37.922Z,102115.47
2022-11-30T08:46:27.522Z,102115.78
2022-11-30T08:49:13.024Z,102124.00
2022-11-30T08:52:15.936Z,102126.44
2022-11-30T08:54:34.631Z,102123.25
2022-11-30T08:57:02.421Z,102122.88
2022-11-30T08:59:32.036Z,102125.88
2022-11-30T09:01:59.883Z,102123.84
2022-11-30T09:04:29.000Z,102125.97
2022-11-30T09:07:00.247Z,102123.13
2022-11-30T09:09:28.182Z,102130.09
2022-11-30T09:11:56.055Z,102133.13
2022-11-30T09:14:24.096Z,102131.50
2022-11-30T09:16:52.074Z,102124.09
2022-11-30T09:19:20.157Z,102125.97
2022-11-30T09:21:51.965Z,102126.06
2022-11-30T09:24:20.466Z,102124.94
2022-11-30T09:26:48.316Z,102127.34
2022-11-30T09:29:16.177Z,102123.69
2022-11-30T09:31:44.075Z,102124.28
2022-11-30T09:34:13.248Z,102128.03
2022-11-30T09:36:41.307Z,102126.03
2022-11-30T09:39:12.909Z,102128.66
2022-11-30T09:42:10.691Z,102124.81
2022-11-30T09:44:49.200Z,102131.28
2022-11-30T09:47:41.220Z,102127.47
2022-11-30T09:50:14.908Z,102130.09
2022-11-30T09:52:46.162Z,102123.31
2022-11-30T09:55:23.783Z,102115.28
2022-11-30T09:57:55.327Z,102115.06
2022-11-30T10:00:25.179Z,102105.59
2022-11-30T10:02:55.148Z,102116.78
2022-11-30T10:05:27.014Z,102110.75
2022-11-30T10:08:16.772Z,102118.25
2022-11-30T10:10:57.333Z,102112.59
2022-11-30T10:13:40.144Z,102119.28
2022-11-30T10:16:19.735Z,102123.50
2022-11-30T10:19:00.348Z,102117.72
2022-11-30T10:21:41.918Z,102119.78
2022-11-30T10:24:33.807Z,102117.06
2022-11-30T10:27:15.362Z,102119.19
2022-11-30T10:29:44.251Z,102118.28
2022-11-30T10:32:19.948Z,102126.09
2022-11-30T10:34:51.806Z,102120.22
2022-11-30T10:37:23.177Z,102124.59
2022-11-30T10:39:59.988Z,102111.16
2022-11-30T10:42:33.920Z,102121.31
2022-11-30T10:45:06.566Z,102123.53
2022-11-30T10:47:37.750Z,102116.47
2022-11-30T10:50:07.027Z,102122.09
2022-11-30T10:52:42.396Z,102111.97
2022-11-30T10:55:16.275Z,102118.50
2022-11-30T10:57:48.114Z,102123.63
2022-11-30T11:00:18.158Z,102121.22
2022-11-30T11:02:48.377Z,102119.53
2022-11-30T11:05:22.940Z,102115.63
2022-11-30T11:07:57.036Z,102112.28
2022-11-30T11:10:34.286Z,102112.28
2022-11-30T11:13:05.179Z,102117.50
2022-11-30T11:15:35.383Z,102122.00
2022-11-30T11:18:25.655Z,102121.88
2022-11-30T11:21:06.299Z,102118.38
2022-11-30T11:23:38.235Z,102126.00
2022-11-30T11:26:07.458Z,102122.41
2022-11-30T11:28:39.478Z,102126.69
2022-11-30T11:31:18.843Z,102125.59
2022-11-30T11:33:54.354Z,102119.88
2022-11-30T11:36:28.177Z,102120.84
2022-11-30T11:38:57.176Z,102122.75
2022-11-30T11:41:28.473Z,102122.69
2022-11-30T11:44:07.302Z,102125.38
2022-11-30T11:46:37.486Z,102133.19
2022-11-30T11:49:07.645Z,102134.75
2022-11-30T11:51:37.166Z,102146.50
2022-11-30T11:54:17.679Z,102144.75
2022-11-30T11:56:46.318Z,102141.97
2022-11-30T11:59:21.998Z,102139.50
2022-11-30T12:02:00.076Z,102141.50
2022-11-30T12:04:49.349Z,102149.50
2022-11-30T12:07:25.125Z,102142.25
2022-11-30T12:10:02.819Z,102139.47
2022-11-30T12:12:30.566Z,102143.06
2022-11-30T12:14:59.980Z,102139.50
2022-11-30T12:17:43.594Z,102144.78
2022-11-30T12:20:24.547Z,102146.59
2022-11-30T12:23:21.336Z,102150.16
2022-11-30T12:25:58.156Z,102142.59
2022-11-30T12:28:32.811Z,102149.81
2022-11-30T12:31:12.500Z,102143.91
2022-11-30T12:33:57.976Z,102142.75
2022-11-30T12:36:36.344Z,102150.72
2022-11-30T12:39:10.787Z,102146.56
2022-11-30T12:41:43.700Z,102136.78
2022-11-30T12:44:29.114Z,102147.34
2022-11-30T12:47:05.867Z,102150.78
2022-11-30T12:49:51.380Z,102137.69
2022-11-30T12:52:35.006Z,102143.47
2022-11-30T12:55:17.140Z,102137.19
2022-11-30T12:57:53.163Z,102145.81
2022-11-30T13:00:22.909Z,102146.94
2022-11-30T13:03:24.725Z,102142.38
2022-11-30T13:05:58.817Z,102148.03
2022-11-30T13:08:30.293Z,102155.84
2022-11-30T13:11:02.037Z,102156.78
2022-11-30T13:13:33.225Z,102148.56
2022-11-30T13:16:04.580Z,102159.03
2022-11-30T13:18:34.851Z,102165.75
2022-11-30T13:21:07.991Z,102160.41
2022-11-30T13:23:41.450Z,102174.41
2022-11-30T13:26:20.661Z,102165.69
2022-11-30T13:29:04.650Z,102175.66
2022-11-30T13:31:37.746Z,102173.13
2022-11-30T13:34:24.812Z,102176.72
2022-11-30T13:36:53.252Z,102172.97
2022-11-30T13:39:26.180Z,102181.34
2022-11-30T13:42:24.016Z,102184.13
2022-11-30T13:44:51.941Z,102185.03
2022-11-30T13:47:28.264Z,102192.94
2022-11-30T13:49:59.988Z,102186.91
2022-11-30T13:53:05.112Z,102191.16
2022-11-30T13:55:58.028Z,102196.78
2022-11-30T13:58:26.894Z,102194.63
2022-11-30T14:01:22.584Z,102198.88
2022-11-30T14:04:36.199Z,102190.31
2022-11-30T14:07:26.503Z,102193.75
2022-11-30T14:10:00.079Z,102193.19
2022-11-30T14:12:59.585Z,102189.88
2022-11-30T14:15:55.402Z,102187.09
2022-11-30T14:18:28.596Z,102191.97
2022-11-30T14:21:01.692Z,102195.41
2022-11-30T14:23:37.838Z,102197.84
2022-11-30T14:26:11.022Z,102202.53
2022-11-30T14:28:44.797Z,102206.91
2022-11-30T14:31:18.706Z,102210.50
2022-11-30T14:33:54.436Z,102212.06
2022-11-30T14:36:24.351Z,102210.75
2022-11-30T14:38:53.792Z,102217.63
2022-11-30T14:41:23.812Z,102223.72
2022-11-30T14:44:07.036Z,102222.63
2022-11-30T14:46:36.240Z,102219.06
2022-11-30T14:49:12.024Z,102222.13
2022-11-30T14:51:40.036Z,102220.47
2022-11-30T14:54:18.854Z,102225.44
2022-11-30T14:56:49.609Z,102223.16
2022-11-30T14:59:30.539Z,102215.44
2022-11-30T15:02:00.041Z,102220.41
2022-11-30T15:04:28.859Z,102211.84
2022-11-30T15:06:57.894Z,102217.38
2022-11-30T15:09:30.796Z,102221.69
2022-11-30T15:11:59.931Z,102225.22
2022-11-30T15:14:27.762Z,102218.06
2022-11-30T15:16:58.211Z,102234.28
2022-11-30T15:19:28.174Z,102222.25
2022-11-30T15:21:57.827Z,102229.22
2022-11-30T15:24:28.194Z,102236.59
2022-11-30T15:27:04.336Z,102234.47
2022-11-30T15:29:38.681Z,102240.22
2022-11-30T15:32:16.130Z,102233.31
2022-11-30T15:34:53.494Z,102234.34
2022-11-30T15:37:30.643Z,102233.34
2022-11-30T15:40:02.248Z,102231.25
2022-11-30T15:42:39.731Z,102232.63
2022-11-30T15:45:18.074Z,102226.53
2022-11-30T15:47:46.005Z,102231.13
2022-11-30T15:50:41.623Z,102234.47
2022-11-30T15:53:28.672Z,102233.84
2022-11-30T15:55:58.864Z,102232.38
2022-11-30T15:58:39.882Z,102232.94
2022-11-30T16:01:10.760Z,102233.91
2022-11-30T16:04:03.432Z,102241.69
2022-11-30T16:06:35.232Z,102237.13
2022-11-30T16:09:08.477Z,102247.09
2022-11-30T16:11:38.007Z,102256.22
2022-11-30T16:14:05.814Z,102258.00
2022-11-30T16:16:34.123Z,102259.84
2022-11-30T16:19:02.120Z,102264.06
2022-11-30T16:21:29.880Z,102262.53
2022-11-30T16:23:57.732Z,102261.38
2022-11-30T16:29:14.861Z,102264.28
2022-11-30T16:31:42.768Z,102256.66
2022-11-30T16:34:12.912Z,102268.81
2022-11-30T16:36:40.795Z,102262.78
2022-11-30T16:39:12.554Z,102266.44
2022-11-30T16:41:40.358Z,102282.72
2022-11-30T16:44:15.377Z,102269.16
2022-11-30T16:46:43.488Z,102272.88
2022-11-30T16:49:11.738Z,102273.25
2022-11-30T16:51:41.650Z,102270.75
2022-11-30T16:54:11.235Z,102277.75
2022-11-30T16:56:39.082Z,102276.44
2022-11-30T16:59:10.816Z,102272.25
2022-11-30T17:01:45.624Z,102280.31
2022-11-30T17:04:18.051Z,102286.63
2022-11-30T17:06:50.684Z,102290.56
2022-11-30T17:09:20.558Z,102292.41
2022-11-30T17:11:51.172Z,102290.22
2022-11-30T17:14:20.290Z,102285.16
2022-11-30T17:16:49.610Z,102281.06
2022-11-30T17:19:17.374Z,102286.19
2022-11-30T17:21:45.815Z,102289.16
2022-11-30T17:24:14.388Z,102288.00
2022-11-30T17:26:42.261Z,102296.25
2022-11-30T17:29:10.018Z,102294.94
2022-11-30T17:31:37.999Z,102294.22
2022-11-30T17:34:08.384Z,102294.75
2022-11-30T17:36:36.138Z,102300.69
2022-11-30T17:39:07.601Z,102294.09
2022-11-30T17:41:35.732Z,102298.06
2022-11-30T17:44:03.939Z,102294.41
2022-11-30T17:46:31.886Z,102292.50
2022-11-30T17:48:59.795Z,102305.81
2022-11-30T17:51:29.101Z,102306.09
2022-11-30T17:53:57.140Z,102302.44
2022-11-30T17:56:25.909Z,102305.06
2022-11-30T17:58:53.882Z,102311.53
2022-11-30T18:01:23.975Z,102310.09
2022-11-30T18:03:52.890Z,102315.34
2022-11-30T18:06:21.344Z,102313.13
2022-11-30T18:08:50.787Z,102327.31
2022-11-30T18:11:20.378Z,102317.63
2022-11-30T18:13:49.875Z,102324.84
2022-11-30T18:16:19.492Z,102330.78
2022-11-30T18:18:48.907Z,102332.91
2022-11-30T18:21:19.129Z,102333.47
2022-11-30T18:23:47.646Z,102324.84
2022-11-30T18:26:18.982Z,102335.38
2022-11-30T18:28:48.167Z,102333.66
2022-11-30T18:31:16.047Z,102341.06
2022-11-30T18:33:43.831Z,102340.69
2022-11-30T18:36:11.631Z,102338.09
2022-11-30T18:38:41.427Z,102345.31
2022-11-30T18:41:09.274Z,102343.19
2022-11-30T18:43:38.929Z,102352.59
2022-11-30T18:46:08.688Z,102347.31
2022-11-30T18:48:36.617Z,102349.81
2022-11-30T18:51:11.817Z,102355.81
2022-11-30T18:53:39.683Z,102345.28
2022-11-30T18:56:13.024Z,102355.53
2022-11-30T18:58:43.012Z,102350.53
2022-11-30T19:01:13.901Z,102353.25
2022-11-30T19:03:42.063Z,102355.13
2022-11-30T19:06:11.808Z,102355.97
2022-11-30T19:08:41.026Z,102356.47
2022-11-30T19:11:10.881Z,102362.03
2022-11-30T19:13:39.091Z,102361.38
2022-11-30T19:16:10.462Z,102361.94
2022-11-30T19:18:38.892Z,102362.06
2022-11-30T19:21:10.753Z,102363.13
2022-11-30T19:23:39.643Z,102369.72
2022-11-30T19:26:08.475Z,102362.22
2022-11-30T19:28:37.503Z,102363.47
2022-11-30T19:31:10.399Z,102363.97
2022-11-30T19:33:39.536Z,102360.75
2022-11-30T19:36:09.444Z,102373.38
2022-11-30T19:38:37.235Z,102368.94
2022-11-30T19:41:08.879Z,102363.97
2022-11-30T19:43:36.928Z,102379.63
2022-11-30T19:46:06.475Z,102376.34
2022-11-30T19:48:36.136Z,102382.09
2022-11-30T19:51:06.739Z,102376.72
2022-11-30T19:53:35.704Z,102379.38
2022-11-30T19:56:06.170Z,102376.41
2022-11-30T19:58:34.449Z,102382.75
2022-11-30T20:01:02.742Z,102385.34
2022-11-30T20:03:35.671Z,102388.97
2022-11-30T20:06:03.535Z,102397.00
2022-11-30T20:08:31.695Z,102398.16
2022-11-30T20:10:59.775Z,102405.34
2022-11-30T20:13:27.664Z,102405.81
2022-11-30T20:15:55.657Z,102401.28
2022-11-30T20:18:23.688Z,102407.09
2022-11-30T20:20:52.740Z,102411.41
2022-11-30T20:23:20.803Z,102408.03
2022-11-30T20:25:48.534Z,102409.84
2022-11-30T20:28:16.394Z,102418.06
2022-11-30T20:30:45.677Z,102413.44
2022-11-30T20:33:13.571Z,102412.13
2022-11-30T20:35:41.508Z,102415.06
2022-11-30T20:38:10.977Z,102411.31
2022-11-30T20:40:39.806Z,102413.53
2022-11-30T20:43:07.720Z,102407.94
2022-11-30T20:45:35.610Z,102412.13
2022-11-30T20:48:04.931Z,102410.00
2022-11-30T20:50:36.056Z,102411.75
2022-11-30T20:53:05.329Z,102414.63
2022-11-30T20:55:34.438Z,102416.81
2022-11-30T20:58:02.288Z,102410.81
2022-11-30T21:00:30.098Z,102413.28
2022-11-30T21:02:58.175Z,102410.53
2022-11-30T21:05:25.955Z,102410.63
2022-11-30T21:07:53.941Z,102417.25
2022-11-30T21:10:22.904Z,102411.88
2022-11-30T21:12:52.493Z,102410.75
2022-11-30T21:15:20.312Z,102417.09
2022-11-30T21:17:48.169Z,102412.97
2022-11-30T21:20:16.062Z,102414.75
2022-11-30T21:22:43.864Z,102421.13
2022-11-30T21:25:11.694Z,102422.91
2022-11-30T21:27:39.499Z,102425.00
2022-11-30T21:30:10.501Z,102416.50
2022-11-30T21:32:38.616Z,102427.06
2022-11-30T21:35:07.316Z,102423.94
2022-11-30T21:37:35.352Z,102427.81
2022-11-30T21:40:03.267Z,102432.53
2022-11-30T21:42:31.296Z,102425.53
2022-11-30T21:44:59.048Z,102433.81
2022-11-30T21:47:31.821Z,102429.44
2022-11-30T21:50:00.626Z,102431.25
2022-11-30T21:52:28.518Z,102421.88
2022-11-30T21:54:56.357Z,102432.56
2022-11-30T21:57:24.466Z,102426.53
2022-11-30T21:59:52.512Z,102428.75
2022-11-30T22:02:20.411Z,102433.25
2022-11-30T22:04:49.631Z,102428.88
2022-11-30T22:07:17.659Z,102427.34
2022-11-30T22:09:45.653Z,102434.59
2022-11-30T22:12:21.656Z,102429.19
2022-11-30T22:14:49.571Z,102429.28
2022-11-30T22:17:17.612Z,102429.56
2022-11-30T22:19:45.543Z,102434.94
2022-11-30T22:22:31.036Z,102435.13
2022-11-30T22:24:59.009Z,102436.63
2022-11-30T22:27:26.937Z,102439.75
2022-11-30T22:29:54.940Z,102432.31
2022-11-30T22:32:22.936Z,102436.88
2022-11-30T22:34:51.003Z,102440.41
2022-11-30T22:37:18.833Z,102436.63
2022-11-30T22:39:48.402Z,102433.91
2022-11-30T22:42:16.910Z,102439.94
2022-11-30T22:44:45.165Z,102441.78
2022-11-30T22:47:13.632Z,102442.38
2022-11-30T22:49:41.731Z,102443.28
2022-11-30T22:52:09.636Z,102436.50
2022-11-30T22:54:37.611Z,102430.59
2022-11-30T22:57:07.084Z,102427.28
2022-11-30T22:59:34.883Z,102422.31
2022-11-30T23:02:02.822Z,102422.75
2022-11-30T23:04:30.664Z,102423.31
2022-11-30T23:06:58.807Z,102415.63
2022-11-30T23:09:26.833Z,102419.59
2022-11-30T23:11:54.808Z,102423.09
2022-11-30T23:14:23.893Z,102413.41
2022-11-30T23:16:51.724Z,102407.03
2022-11-30T23:19:19.671Z,102415.78
2022-11-30T23:21:50.005Z,102408.69
2022-11-30T23:24:20.496Z,102408.50
2022-11-30T23:26:48.286Z,102412.69
2022-11-30T23:29:17.682Z,102411.06
2022-11-30T23:31:48.117Z,102415.41
2022-11-30T23:34:18.418Z,102414.97
2022-11-30T23:36:46.642Z,102416.41
2022-11-30T23:39:16.650Z,102413.38
2022-11-30T23:41:44.775Z,102409.75
2022-11-30T23:44:12.664Z,102412.50
2022-11-30T23:46:40.661Z,102412.22
2022-11-30T23:49:10.094Z,102408.31
2022-11-30T23:51:38.072Z,102401.97
2022-11-30T23:54:05.937Z,102411.00
2022-11-30T23:56:33.695Z,102412.50
2022-11-30T23:59:01.426Z,102410.38
